Time;durP1;ratioP1;P1;durP2;ratioP2;P2;SDS_P1;SDS_P2;PMS_P1;PMS_P2;Temp;Humidity;BMP_temperature;BMP_pressure;BME280_temperature;BME280_humidity;BME280_pressure;Samples;Min_cycle;Max_cycle;Signal;HPM_P1;HPM_P2
2022/07/10 00:00:53;;;;;;;3.33;1.53;;;15.40;99.90;;;;;;5089508;28;20236;-50
2022/07/10 00:03:21;;;;;;;5.22;1.70;;;15.40;99.90;;;;;;5089187;28;20228;-50
2022/07/10 00:05:49;;;;;;;8.50;5.20;;;15.30;99.90;;;;;;5089446;28;20695;-50
2022/07/10 00:08:17;;;;;;;4.85;2.53;;;15.30;99.90;;;;;;5092547;28;20269;-50
2022/07/10 00:10:47;;;;;;;6.03;4.60;;;15.20;99.90;;;;;;5108797;28;20918;-49
2022/07/10 00:13:15;;;;;;;4.87;2.00;;;15.20;99.90;;;;;;5105440;28;20789;-50
2022/07/10 00:15:43;;;;;;;6.30;2.87;;;15.10;99.90;;;;;;5109438;28;20203;-50
2022/07/10 00:18:11;;;;;;;4.43;3.90;;;15.00;99.90;;;;;;5109129;28;20244;-49
2022/07/10 00:20:39;;;;;;;5.93;2.57;;;15.00;99.90;;;;;;5109895;28;20260;-49
2022/07/10 00:23:08;;;;;;;6.03;4.40;;;15.00;99.90;;;;;;5109118;28;20604;-50
2022/07/10 00:25:36;;;;;;;10.07;8.97;;;14.90;99.90;;;;;;5108747;28;20215;-50
2022/07/10 00:28:05;;;;;;;9.93;5.80;;;14.80;99.90;;;;;;5109348;28;20233;-50
2022/07/10 00:30:33;;;;;;;7.57;3.03;;;14.80;99.90;;;;;;5095679;28;20211;-50
2022/07/10 00:33:01;;;;;;;6.47;4.87;;;14.70;99.90;;;;;;5108942;28;20269;-50
2022/07/10 00:35:29;;;;;;;12.40;7.47;;;14.60;99.90;;;;;;5109285;28;20231;-50
2022/07/10 00:37:57;;;;;;;7.60;4.30;;;14.60;99.90;;;;;;5109342;28;20207;-50
2022/07/10 00:40:25;;;;;;;4.67;3.40;;;14.50;99.90;;;;;;5111282;28;20658;-50
2022/07/10 00:42:53;;;;;;;8.47;3.23;;;14.50;99.90;;;;;;5113412;28;20272;-50
2022/07/10 00:45:23;;;;;;;7.37;2.67;;;14.50;99.90;;;;;;5112771;28;20806;-50
2022/07/10 00:47:51;;;;;;;6.53;3.57;;;14.50;99.90;;;;;;5113055;28;20257;-50
2022/07/10 00:50:19;;;;;;;4.53;2.77;;;14.50;99.90;;;;;;5113015;28;20203;-51
2022/07/10 00:52:47;;;;;;;6.43;2.60;;;14.40;99.90;;;;;;5112828;28;20232;-50
2022/07/10 00:55:16;;;;;;;5.13;2.77;;;14.40;99.90;;;;;;5114271;28;20293;-51
2022/07/10 00:57:44;;;;;;;6.43;2.40;;;14.40;99.90;;;;;;5114123;28;20253;-50
2022/07/10 01:00:12;;;;;;;7.07;2.43;;;14.40;99.90;;;;;;5113166;28;20256;-50
2022/07/10 01:02:44;;;;;;;7.57;2.57;;;14.30;99.90;;;;;;5096212;28;20284;-50
2022/07/10 01:05:12;;;;;;;4.90;2.00;;;14.30;99.90;;;;;;5112622;28;20207;-50
2022/07/10 01:07:41;;;;;;;4.50;2.30;;;14.30;99.90;;;;;;5109339;28;20195;-50
2022/07/10 01:10:09;;;;;;;5.43;1.80;;;14.20;99.90;;;;;;5112382;28;20278;-50
2022/07/10 01:12:38;;;;;;;11.43;3.93;;;14.30;99.90;;;;;;5112670;28;20250;-50
2022/07/10 01:15:08;;;;;;;7.23;2.80;;;14.20;99.90;;;;;;5112635;28;20256;-50
2022/07/10 01:17:36;;;;;;;5.97;2.47;;;14.20;99.90;;;;;;5111926;28;20268;-50
2022/07/10 01:20:07;;;;;;;5.80;2.43;;;14.20;99.90;;;;;;5112953;28;20565;-49
2022/07/10 01:22:38;;;;;;;8.93;3.10;;;14.10;99.90;;;;;;5112247;28;20219;-50
2022/07/10 01:25:07;;;;;;;6.40;2.27;;;14.10;99.90;;;;;;5084486;28;20208;-49
2022/07/10 01:27:35;;;;;;;7.03;2.83;;;14.00;99.90;;;;;;5112270;28;20214;-49
2022/07/10 01:30:04;;;;;;;4.53;2.10;;;14.00;99.90;;;;;;5111920;28;20200;-50
2022/07/10 01:32:38;;;;;;;10.50;2.73;;;14.00;99.90;;;;;;5111661;28;20231;-50
2022/07/10 01:35:07;;;;;;;6.07;2.60;;;14.10;99.90;;;;;;5111513;28;20250;-50
2022/07/10 01:37:37;;;;;;;6.97;2.90;;;14.10;99.90;;;;;;5112030;28;20950;-50
2022/07/10 01:40:07;;;;;;;4.60;2.20;;;14.10;99.90;;;;;;5110782;28;20233;-50
2022/07/10 01:42:35;;;;;;;6.43;2.90;;;14.10;99.90;;;;;;5112102;28;20260;-50
2022/07/10 01:45:03;;;;;;;7.37;2.47;;;14.20;99.90;;;;;;5106228;28;20204;-50
2022/07/10 01:47:34;;;;;;;5.93;2.30;;;14.20;99.90;;;;;;5111307;28;20204;-50
2022/07/10 01:50:03;;;;;;;3.53;2.00;;;14.20;99.90;;;;;;5112138;28;20215;-50
2022/07/10 01:52:31;;;;;;;5.63;2.80;;;14.20;99.90;;;;;;5110829;28;20589;-50
2022/07/10 01:55:00;;;;;;;3.77;2.17;;;14.30;99.90;;;;;;5111660;28;20230;-49
2022/07/10 01:57:28;;;;;;;7.80;3.20;;;14.30;99.90;;;;;;5098316;28;20556;-50
2022/07/10 01:59:56;;;;;;;7.20;3.40;;;14.30;99.90;;;;;;5111497;28;20207;-50
2022/07/10 02:02:24;;;;;;;7.00;2.57;;;14.30;99.90;;;;;;5101433;28;20227;-50
2022/07/10 02:04:52;;;;;;;5.50;2.30;;;14.30;99.90;;;;;;5111569;28;20203;-50
2022/07/10 02:07:22;;;;;;;6.33;1.93;;;14.30;99.90;;;;;;5111432;28;20238;-50
2022/07/10 02:09:50;;;;;;;5.03;1.90;;;14.30;99.90;;;;;;5110827;28;20219;-50
2022/07/10 02:12:20;;;;;;;5.80;2.60;;;14.30;99.90;;;;;;5111606;28;20700;-50
2022/07/10 02:14:48;;;;;;;3.70;1.90;;;14.30;99.90;;;;;;5111565;28;20249;-50
2022/07/10 02:17:16;;;;;;;6.93;2.53;;;14.20;99.90;;;;;;5111116;28;20203;-50
2022/07/10 02:19:44;;;;;;;6.00;2.70;;;14.20;99.90;;;;;;5111277;28;20253;-50
2022/07/10 02:22:12;;;;;;;6.87;2.20;;;14.20;99.90;;;;;;5111229;28;20219;-49
2022/07/10 02:24:40;;;;;;;6.20;2.13;;;14.20;99.90;;;;;;5111209;28;20203;-50
2022/07/10 02:27:08;;;;;;;6.17;2.10;;;14.20;99.90;;;;;;5111604;28;20204;-50
2022/07/10 02:29:38;;;;;;;8.00;2.20;;;14.10;99.90;;;;;;5110701;28;20203;-50
2022/07/10 02:32:07;;;;;;;5.80;2.10;;;14.10;99.90;;;;;;5111877;28;20220;-50
2022/07/10 02:34:35;;;;;;;4.47;1.90;;;14.10;99.90;;;;;;5110993;28;20211;-50
2022/07/10 02:37:03;;;;;;;5.07;2.07;;;14.10;99.90;;;;;;5111404;28;20200;-50
2022/07/10 02:39:31;;;;;;;5.93;2.30;;;14.00;99.90;;;;;;5110618;28;20269;-50
2022/07/10 02:41:59;;;;;;;7.20;2.43;;;14.00;99.90;;;;;;5110678;28;20200;-50
2022/07/10 02:44:29;;;;;;;7.17;2.03;;;13.80;99.90;;;;;;5107165;28;20277;-50
2022/07/10 02:46:58;;;;;;;4.67;2.30;;;13.80;99.90;;;;;;5108040;28;20203;-50
2022/07/10 02:49:26;;;;;;;5.97;1.80;;;13.80;99.90;;;;;;5110349;28;20243;-50
2022/07/10 02:51:54;;;;;;;4.27;2.07;;;13.80;99.90;;;;;;5110245;28;20260;-50
2022/07/10 02:54:22;;;;;;;4.43;2.20;;;13.70;99.90;;;;;;5110463;28;20242;-50
2022/07/10 02:56:50;;;;;;;4.90;2.00;;;13.80;99.90;;;;;;5110759;28;20211;-50
2022/07/10 02:59:18;;;;;;;4.23;2.10;;;13.80;99.90;;;;;;5110380;28;20252;-49
2022/07/10 03:01:46;;;;;;;8.13;2.10;;;13.80;99.90;;;;;;5108135;28;20207;-50
2022/07/10 03:04:16;;;;;;;6.20;2.10;;;13.90;99.90;;;;;;5109040;28;20306;-50
2022/07/10 03:06:44;;;;;;;6.33;1.80;;;13.90;99.90;;;;;;5110108;28;20203;-50
2022/07/10 03:09:12;;;;;;;7.63;1.87;;;13.90;99.90;;;;;;5109861;28;20268;-50
2022/07/10 03:11:40;;;;;;;4.03;2.00;;;14.00;99.90;;;;;;5110045;28;20344;-50
2022/07/10 03:14:08;;;;;;;5.60;1.87;;;14.00;99.90;;;;;;5110081;28;20238;-50
2022/07/10 03:16:36;;;;;;;5.40;1.80;;;13.90;99.90;;;;;;5110081;28;20227;-50
2022/07/10 03:19:04;;;;;;;4.83;2.00;;;13.90;99.90;;;;;;5109570;28;20298;-50
2022/07/10 03:21:34;;;;;;;9.33;3.00;;;13.90;99.90;;;;;;5110081;28;20273;-50
2022/07/10 03:24:02;;;;;;;9.80;3.23;;;13.90;99.90;;;;;;5100932;28;20614;-50
2022/07/10 03:26:30;;;;;;;13.37;3.40;;;13.90;99.90;;;;;;5110364;28;20276;-50
2022/07/10 03:28:58;;;;;;;6.57;2.17;;;14.00;99.90;;;;;;5109916;28;20550;-50
2022/07/10 03:31:26;;;;;;;5.43;2.13;;;14.00;99.90;;;;;;5108954;28;20203;-50
2022/07/10 03:33:54;;;;;;;7.53;1.90;;;14.00;99.90;;;;;;5109527;28;20670;-50
2022/07/10 03:36:22;;;;;;;4.37;2.00;;;14.00;99.90;;;;;;5109766;28;20749;-50
2022/07/10 03:38:52;;;;;;;6.73;2.27;;;14.00;99.90;;;;;;5109763;28;20212;-50
2022/07/10 03:41:20;;;;;;;6.40;2.40;;;14.00;99.90;;;;;;5109745;28;20211;-50
2022/07/10 03:43:48;;;;;;;5.07;2.00;;;14.00;99.90;;;;;;5109639;28;20715;-50
2022/07/10 03:46:16;;;;;;;5.50;1.83;;;14.10;99.90;;;;;;5105979;28;20260;-50
2022/07/10 03:48:44;;;;;;;9.37;2.20;;;14.00;99.90;;;;;;5109603;28;20260;-50
2022/07/10 03:51:12;;;;;;;5.80;1.70;;;14.00;99.90;;;;;;5109754;28;20211;-50
2022/07/10 03:53:40;;;;;;;6.97;1.90;;;14.00;99.90;;;;;;5108849;28;20299;-51
2022/07/10 03:57:53;;;;;;;3.70;1.73;;;14.00;99.90;;;;;;5109849;28;20215;-50
2022/07/10 03:58:56;;;;;;;3.73;1.80;;;13.90;99.90;;;;;;5109001;28;20261;-50
2022/07/10 04:01:24;;;;;;;4.47;1.67;;;13.90;99.90;;;;;;5102818;28;20200;-50
2022/07/10 04:03:52;;;;;;;7.47;1.90;;;14.00;99.90;;;;;;5088891;28;20255;-50
2022/07/10 04:06:21;;;;;;;6.53;1.77;;;14.00;99.90;;;;;;5109099;28;20199;-50
2022/07/10 04:08:49;;;;;;;4.10;1.60;;;14.10;99.90;;;;;;5109591;28;20582;-50
2022/07/10 04:11:18;;;;;;;3.17;1.60;;;14.20;99.90;;;;;;5108943;28;20199;-50
2022/07/10 04:13:46;;;;;;;7.37;1.90;;;14.30;99.90;;;;;;5109423;28;20780;-50
2022/07/10 04:16:14;;;;;;;3.13;1.50;;;14.40;99.90;;;;;;5113333;28;20207;-50
2022/07/10 04:18:42;;;;;;;5.67;1.50;;;14.50;99.90;;;;;;5113651;28;20646;-50
2022/07/10 04:21:11;;;;;;;4.63;2.10;;;14.60;99.90;;;;;;5114706;28;20231;-50
2022/07/10 04:23:39;;;;;;;4.37;1.50;;;14.50;99.90;;;;;;5104617;28;20264;-50
2022/07/10 04:26:07;;;;;;;5.30;1.87;;;14.60;99.90;;;;;;5112431;28;20207;-50
2022/07/10 04:28:36;;;;;;;4.07;1.87;;;14.60;99.90;;;;;;5113167;28;20210;-50
2022/07/10 04:34:10;;;;;;;4.57;1.93;;;14.70;99.90;;;;;;5091283;28;20761;-50
2022/07/10 04:36:38;;;;;;;3.03;1.50;;;14.70;99.90;;;;;;5099666;28;20203;-50
2022/07/10 04:39:07;;;;;;;6.00;2.00;;;14.70;99.90;;;;;;5095639;28;20204;-50
2022/07/10 04:41:35;;;;;;;5.60;1.60;;;14.70;99.90;;;;;;5107411;28;20212;-51
2022/07/10 04:44:04;;;;;;;6.23;1.90;;;14.80;99.90;;;;;;5113230;28;20268;-50
2022/07/10 04:46:33;;;;;;;5.60;2.03;;;14.80;99.90;;;;;;5100800;28;20216;-50
2022/07/10 04:49:01;;;;;;;4.57;1.73;;;14.80;99.90;;;;;;5112085;28;20207;-50
2022/07/10 04:51:29;;;;;;;6.90;1.60;;;14.80;99.90;;;;;;5112967;28;20624;-50
2022/07/10 04:53:57;;;;;;;7.07;1.90;;;14.80;99.90;;;;;;5112024;28;20265;-49
2022/07/10 04:56:25;;;;;;;6.03;1.97;;;14.80;99.90;;;;;;5112588;28;20567;-51
2022/07/10 04:58:53;;;;;;;2.43;1.63;;;14.70;99.90;;;;;;5110494;28;20203;-50
2022/07/10 05:01:23;;;;;;;7.73;1.90;;;14.80;99.90;;;;;;5095790;28;20208;-50
2022/07/10 05:03:51;;;;;;;6.07;2.10;;;14.90;99.90;;;;;;5109605;28;20296;-51
2022/07/10 05:06:19;;;;;;;6.17;1.80;;;14.90;99.90;;;;;;5112649;28;20269;-50
2022/07/10 05:08:47;;;;;;;4.53;1.90;;;15.00;99.90;;;;;;5097620;28;20208;-50
2022/07/10 05:11:15;;;;;;;6.40;1.80;;;15.00;99.90;;;;;;5112085;28;20207;-50
2022/07/10 05:13:46;;;;;;;5.67;1.70;;;15.20;99.90;;;;;;5112284;28;20634;-50
2022/07/10 05:16:14;;;;;;;8.57;2.00;;;15.20;99.90;;;;;;5112135;28;20623;-50
2022/07/10 05:18:49;;;;;;;4.77;1.70;;;15.30;99.90;;;;;;5111585;28;20219;-50
2022/07/10 05:21:17;;;;;;;6.00;1.80;;;15.20;99.90;;;;;;5111897;28;20255;-50
2022/07/10 05:23:45;;;;;;;6.35;1.67;;;15.40;99.90;;;;;;5111875;28;20220;-50
2022/07/10 05:26:13;;;;;;;7.03;1.93;;;15.40;99.90;;;;;;5109806;28;20746;-50
2022/07/10 05:28:41;;;;;;;6.90;1.90;;;15.50;99.90;;;;;;5093146;28;20209;-50
2022/07/10 05:31:09;;;;;;;7.43;2.30;;;15.40;99.90;;;;;;5097069;28;20208;-50
2022/07/10 05:33:40;;;;;;;5.38;1.77;;;15.50;99.90;;;;;;5097476;28;20832;-49
2022/07/10 05:36:09;;;;;;;6.37;1.97;;;15.40;99.90;;;;;;5111739;28;20290;-51
2022/07/10 05:38:37;;;;;;;9.98;2.13;;;15.40;99.90;;;;;;5105386;28;20204;-50
2022/07/10 05:41:06;;;;;;;6.83;2.20;;;15.40;99.90;;;;;;5103680;28;20212;-50
2022/07/10 05:43:34;;;;;;;6.57;1.80;;;15.40;99.90;;;;;;5111192;28;20257;-51
2022/07/10 05:46:02;;;;;;;8.03;1.87;;;15.30;99.90;;;;;;5105779;28;20279;-50
2022/07/10 05:48:30;;;;;;;5.67;1.73;;;15.30;99.90;;;;;;5111195;28;20207;-50
2022/07/10 05:50:58;;;;;;;4.95;1.83;;;15.30;99.90;;;;;;5111193;28;20207;-50
2022/07/10 05:53:48;;;;;;;7.43;2.10;;;15.40;99.90;;;;;;5107668;28;20327;-50
2022/07/10 05:56:16;;;;;;;4.43;1.60;;;15.40;99.90;;;;;;5111314;28;20261;-50
2022/07/10 05:58:44;;;;;;;5.53;1.70;;;15.80;99.90;;;;;;5110009;28;20855;-51
2022/07/10 06:01:12;;;;;;;5.68;1.77;;;16.00;99.90;;;;;;5095007;28;20209;-51
2022/07/10 06:03:40;;;;;;;4.57;1.90;;;16.00;99.90;;;;;;5106999;28;20341;-51
2022/07/10 06:06:09;;;;;;;4.63;1.70;;;15.90;99.90;;;;;;5111716;28;20291;-51
2022/07/10 06:08:37;;;;;;;4.60;1.83;;;15.90;99.90;;;;;;5109461;28;20207;-50
2022/07/10 06:11:07;;;;;;;3.85;1.80;;;15.80;99.90;;;;;;5111581;28;20212;-51
2022/07/10 06:13:35;;;;;;;4.43;1.63;;;15.70;99.90;;;;;;5110337;28;20223;-50
2022/07/10 06:16:03;;;;;;;5.88;1.70;;;15.60;99.90;;;;;;5111085;28;20195;-51
2022/07/10 06:18:32;;;;;;;6.68;1.90;;;15.60;99.90;;;;;;5111208;28;20298;-51
2022/07/10 06:21:00;;;;;;;7.55;1.75;;;15.60;99.90;;;;;;5111474;28;20248;-50
2022/07/10 06:23:30;;;;;;;4.13;1.75;;;15.60;99.90;;;;;;5111926;28;20239;-50
2022/07/10 06:25:58;;;;;;;4.72;1.75;;;15.60;99.90;;;;;;5112637;28;20207;-49
2022/07/10 06:28:28;;;;;;;4.63;1.60;;;15.60;99.90;;;;;;5089712;28;20211;-50
2022/07/10 06:30:56;;;;;;;4.70;1.80;;;15.60;99.90;;;;;;5083098;28;20635;-51
2022/07/10 06:33:27;;;;;;;6.30;1.63;;;15.50;99.90;;;;;;5080264;28;20228;-50
2022/07/10 06:35:56;;;;;;;7.10;1.77;;;15.40;99.90;;;;;;5090337;28;20227;-51
2022/07/10 06:38:24;;;;;;;4.25;1.60;;;15.40;99.90;;;;;;5088810;28;20627;-52
2022/07/10 06:40:52;;;;;;;4.30;1.70;;;15.40;99.90;;;;;;5090403;28;20201;-50
2022/07/10 06:43:20;;;;;;;4.88;1.42;;;15.20;99.90;;;;;;5090669;28;20224;-50
2022/07/10 06:45:50;;;;;;;5.60;1.60;;;15.20;99.90;;;;;;5089513;28;20259;-50
2022/07/10 06:48:18;;;;;;;5.63;1.80;;;15.10;99.90;;;;;;5090371;28;20208;-50
2022/07/10 06:50:47;;;;;;;5.53;1.87;;;15.20;99.90;;;;;;5089907;28;20212;-49
2022/07/10 06:53:15;;;;;;;8.60;2.03;;;15.10;99.90;;;;;;5090373;28;20224;-51
2022/07/10 06:55:43;;;;;;;5.30;1.88;;;15.20;99.90;;;;;;5089723;28;20628;-50
2022/07/10 06:58:11;;;;;;;4.13;1.67;;;15.50;99.90;;;;;;5089636;28;20678;-51
2022/07/10 07:00:39;;;;;;;4.85;1.70;;;15.60;99.90;;;;;;5089997;28;20233;-51
2022/07/10 07:03:13;;;;;;;3.70;1.58;;;15.90;99.90;;;;;;5096618;28;20280;-50
2022/07/10 07:05:55;;;;;;;8.43;1.95;;;16.10;99.90;;;;;;5083095;28;20193;-50
2022/07/10 07:08:23;;;;;;;4.10;1.83;;;16.20;99.90;;;;;;5088534;28;20665;-51
2022/07/10 07:10:51;;;;;;;3.00;1.40;;;16.00;99.90;;;;;;5087433;28;20208;-50
2022/07/10 07:13:19;;;;;;;6.55;1.60;;;15.90;99.90;;;;;;5087666;28;20236;-51
2022/07/10 07:15:55;;;;;;;5.00;1.80;;;15.90;99.90;;;;;;5087352;28;20713;-50
2022/07/10 07:18:31;;;;;;;3.22;1.85;;;15.90;99.90;;;;;;5078044;28;20574;-50
2022/07/10 07:23:46;;;;;;;4.38;1.58;;;16.00;99.90;;;;;;5082068;28;20224;-51
2022/07/10 07:26:14;;;;;;;4.93;1.70;;;16.20;99.90;;;;;;5079307;28;20204;-50
2022/07/10 07:28:42;;;;;;;7.18;2.10;;;16.20;99.90;;;;;;5086196;28;20896;-50
2022/07/10 07:31:10;;;;;;;4.90;1.70;;;16.10;99.90;;;;;;5080183;28;20279;-51
2022/07/10 07:33:44;;;;;;;4.45;1.60;;;16.20;99.90;;;;;;5085183;28;20220;-51
2022/07/10 07:36:12;;;;;;;3.33;1.33;;;16.20;99.90;;;;;;5082271;28;20224;-52
2022/07/10 07:38:40;;;;;;;4.05;2.00;;;16.40;99.90;;;;;;5085369;28;20265;-51
2022/07/10 07:41:10;;;;;;;5.85;1.90;;;16.50;99.90;;;;;;5083562;28;20228;-50
2022/07/10 07:43:38;;;;;;;5.03;1.42;;;16.60;99.90;;;;;;5086711;28;20228;-49
2022/07/10 07:46:06;;;;;;;8.30;1.75;;;16.60;99.90;;;;;;5087990;28;20227;-50
2022/07/10 07:48:35;;;;;;;5.35;1.80;;;16.60;99.90;;;;;;5086754;28;20200;-49
2022/07/10 07:51:05;;;;;;;3.00;1.60;;;16.50;99.90;;;;;;5098047;28;20290;-50
2022/07/10 07:53:33;;;;;;;6.60;1.70;;;16.60;99.90;;;;;;5094553;28;20284;-51
2022/07/10 07:56:01;;;;;;;5.30;2.05;;;16.50;99.90;;;;;;5092312;28;20285;-51
2022/07/10 07:58:29;;;;;;;5.50;1.83;;;16.70;99.90;;;;;;5092862;28;20211;-50
2022/07/10 08:00:58;;;;;;;3.38;1.23;;;16.80;99.90;;;;;;5094354;28;20196;-50
2022/07/10 08:03:26;;;;;;;4.53;1.27;;;16.80;99.90;;;;;;5094043;28;20220;-51
2022/07/10 08:06:16;;;;;;;6.15;1.75;;;16.80;99.90;;;;;;5093598;28;20512;-51
2022/07/10 08:08:45;;;;;;;4.47;1.52;;;16.90;99.90;;;;;;5092751;28;20207;-51
2022/07/10 08:11:13;;;;;;;3.03;1.90;;;16.90;99.90;;;;;;5093731;28;20200;-50
2022/07/10 08:13:42;;;;;;;3.38;1.40;;;16.90;99.90;;;;;;5093366;28;20232;-50
2022/07/10 08:16:11;;;;;;;4.57;1.35;;;16.90;99.90;;;;;;5095395;28;20228;-51
2022/07/10 08:18:39;;;;;;;3.95;1.70;;;16.90;99.90;;;;;;5097409;28;20257;-50
2022/07/10 08:21:08;;;;;;;3.20;1.38;;;16.80;99.90;;;;;;5094564;28;20203;-51
2022/07/10 08:23:38;;;;;;;3.90;1.45;;;16.90;99.90;;;;;;5094091;28;20220;-50
2022/07/10 08:26:06;;;;;;;3.40;1.30;;;16.90;99.90;;;;;;5096359;28;20600;-50
2022/07/10 08:28:34;;;;;;;5.25;1.30;;;16.90;99.90;;;;;;5094675;28;20261;-50
2022/07/10 08:31:03;;;;;;;4.35;1.63;;;17.00;99.90;;;;;;5091606;28;20295;-51
2022/07/10 08:33:31;;;;;;;6.43;1.60;;;17.20;99.90;;;;;;5096822;28;20594;-51
2022/07/10 08:36:00;;;;;;;3.83;1.25;;;17.40;99.90;;;;;;5095623;28;20228;-51
2022/07/10 08:38:49;;;;;;;4.15;1.45;;;17.40;99.90;;;;;;5093547;28;20231;-50
2022/07/10 08:41:21;;;;;;;4.70;1.67;;;17.40;99.90;;;;;;5094424;28;20665;-50
2022/07/10 08:43:50;;;;;;;7.15;1.67;;;17.40;99.90;;;;;;5095106;28;20289;-50
2022/07/10 08:46:19;;;;;;;5.78;1.60;;;17.40;99.90;;;;;;5096609;28;20611;-51
2022/07/10 08:48:49;;;;;;;2.63;1.60;;;17.40;99.90;;;;;;5093276;28;20204;-51
2022/07/10 08:51:24;;;;;;;3.30;1.30;;;17.30;99.90;;;;;;5095407;28;20693;-50
2022/07/10 08:53:56;;;;;;;4.65;1.45;;;17.30;99.90;;;;;;5096796;28;20308;-50
2022/07/10 08:56:25;;;;;;;2.85;1.50;;;17.60;99.90;;;;;;5094581;28;20704;-50
2022/07/10 08:58:54;;;;;;;5.15;2.00;;;17.70;99.90;;;;;;5098879;28;20199;-50
2022/07/10 09:01:23;;;;;;;5.22;1.77;;;17.70;99.90;;;;;;5092709;28;20340;-51
2022/07/10 09:03:52;;;;;;;3.22;1.33;;;17.60;99.90;;;;;;5093595;28;20227;-50
2022/07/10 09:06:20;;;;;;;4.10;1.42;;;17.50;99.90;;;;;;5090221;28;20249;-51
2022/07/10 09:09:05;;;;;;;4.10;1.30;;;17.60;99.90;;;;;;5093974;28;20200;-51
2022/07/10 09:11:34;;;;;;;4.47;1.85;;;17.90;99.90;;;;;;5092944;28;20216;-50
2022/07/10 09:14:07;;;;;;;3.80;1.48;;;18.20;99.90;;;;;;5093119;28;20289;-50
2022/07/10 09:16:36;;;;;;;3.95;1.50;;;18.30;99.90;;;;;;5096025;28;20243;-51
2022/07/10 09:19:20;;;;;;;4.50;1.80;;;18.20;99.90;;;;;;5094077;28;20223;-50
2022/07/10 09:21:50;;;;;;;3.50;1.73;;;18.20;99.90;;;;;;5086202;28;20257;-51
2022/07/10 09:24:20;;;;;;;3.35;1.30;;;18.20;99.90;;;;;;5086901;28;20305;-50
2022/07/10 09:26:59;;;;;;;2.78;1.45;;;18.00;99.90;;;;;;5089702;28;20269;-51
2022/07/10 09:29:28;;;;;;;3.92;1.52;;;17.90;99.90;;;;;;5091091;28;20204;-51
2022/07/10 09:31:57;;;;;;;3.45;1.58;;;17.70;99.90;;;;;;5089675;28;20208;-51
2022/07/10 09:34:40;;;;;;;3.83;1.63;;;17.60;99.90;;;;;;5091759;28;20200;-50
2022/07/10 09:37:22;;;;;;;5.13;1.75;;;17.40;99.90;;;;;;5090583;28;20231;-50
2022/07/10 09:39:59;;;;;;;5.60;1.75;;;17.50;99.90;;;;;;5091364;28;20922;-50
2022/07/10 09:42:32;;;;;;;5.30;2.05;;;17.80;99.90;;;;;;5092633;28;20305;-50
2022/07/10 09:45:20;;;;;;;5.07;1.55;;;18.10;99.90;;;;;;5092847;28;20223;-50
2022/07/10 09:47:56;;;;;;;3.63;1.63;;;18.40;99.90;;;;;;5085300;28;20273;-51
2022/07/10 09:50:27;;;;;;;3.35;1.63;;;18.60;99.90;;;;;;5088538;28;20208;-51
2022/07/10 09:52:58;;;;;;;4.28;1.67;;;19.00;99.90;;;;;;5087104;28;20231;-51
2022/07/10 09:55:30;;;;;;;3.78;1.70;;;18.90;99.90;;;;;;5088176;28;20253;-50
2022/07/10 09:58:00;;;;;;;5.28;2.15;;;18.90;99.90;;;;;;5088304;28;20235;-51
2022/07/10 10:00:29;;;;;;;4.68;1.83;;;18.80;99.90;;;;;;5080370;28;20714;-51
2022/07/10 10:02:59;;;;;;;3.03;1.48;;;18.80;99.90;;;;;;5077897;28;20614;-51
2022/07/10 10:05:37;;;;;;;3.42;1.40;;;18.50;99.90;;;;;;5083448;28;20211;-51
2022/07/10 10:08:12;;;;;;;4.25;1.55;;;18.50;99.90;;;;;;5086753;28;20208;-51
2022/07/10 10:10:47;;;;;;;6.15;1.60;;;18.60;99.90;;;;;;5083300;28;20200;-50
2022/07/10 10:13:18;;;;;;;5.30;1.42;;;18.70;99.90;;;;;;5078799;28;20228;-51
2022/07/10 10:15:48;;;;;;;4.35;1.63;;;18.90;99.90;;;;;;5079641;28;20228;-50
2022/07/10 10:18:18;;;;;;;2.78;1.30;;;19.10;99.90;;;;;;5084671;28;20208;-51
2022/07/10 10:20:47;;;;;;;6.65;1.77;;;19.50;99.90;;;;;;5086099;28;20205;-50
2022/07/10 10:23:20;;;;;;;3.33;1.58;;;19.80;99.90;;;;;;5085972;28;20314;-51
2022/07/10 10:25:51;;;;;;;6.03;1.92;;;19.80;99.90;;;;;;5081582;28;20249;-51
2022/07/10 10:28:23;;;;;;;4.50;1.50;;;19.90;99.90;;;;;;5084790;28;20261;-50
2022/07/10 10:30:53;;;;;;;3.95;1.67;;;19.90;99.90;;;;;;5087302;28;20201;-51
2022/07/10 10:33:45;;;;;;;4.13;1.90;;;19.90;99.90;;;;;;5085191;28;20277;-50
2022/07/10 10:36:14;;;;;;;5.93;2.15;;;19.90;99.90;;;;;;5084915;28;20205;-50
2022/07/10 10:39:01;;;;;;;4.00;1.50;;;19.70;99.90;;;;;;5090445;28;20212;-50
2022/07/10 10:41:37;;;;;;;3.88;1.80;;;19.60;99.90;;;;;;5079273;28;20209;-51
2022/07/10 10:44:31;;;;;;;5.15;1.50;;;19.70;99.90;;;;;;5086725;28;20273;-50
2022/07/10 10:47:07;;;;;;;3.08;1.27;;;20.00;99.90;;;;;;5086235;28;20203;-50
2022/07/10 10:49:59;;;;;;;4.55;1.48;;;20.10;99.90;;;;;;5087747;28;20253;-50
2022/07/10 10:52:27;;;;;;;4.13;1.50;;;20.10;99.90;;;;;;5085431;28;20231;-51
2022/07/10 10:55:07;;;;;;;3.83;1.10;;;20.10;99.90;;;;;;5086446;28;20261;-50
2022/07/10 10:57:44;;;;;;;4.18;1.60;;;20.00;99.90;;;;;;5087998;28;20254;-51
2022/07/10 11:00:37;;;;;;;5.22;1.80;;;20.10;99.90;;;;;;5086989;28;20685;-51
2022/07/10 11:03:17;;;;;;;4.63;1.35;;;20.10;99.90;;;;;;5086496;28;20224;-50
2022/07/10 11:05:47;;;;;;;4.60;1.50;;;20.20;99.90;;;;;;5087233;28;20261;-50
2022/07/10 11:08:35;;;;;;;4.45;1.50;;;20.50;99.90;;;;;;5088180;28;20253;-50
2022/07/10 11:11:37;;;;;;;3.88;1.25;;;20.50;99.90;;;;;;5087578;28;20215;-50
2022/07/10 11:14:09;;;;;;;4.22;1.60;;;20.60;99.90;;;;;;5086829;28;20227;-50
2022/07/10 11:16:46;;;;;;;3.83;1.52;;;20.60;99.90;;;;;;5088555;28;20208;-51
2022/07/10 11:19:22;;;;;;;6.35;2.03;;;20.40;99.90;;;;;;5089242;28;20222;-50
2022/07/10 11:22:00;;;;;;;5.05;1.70;;;20.50;99.90;;;;;;5090237;28;20204;-50
2022/07/10 11:24:43;;;;;;;5.28;1.80;;;20.60;99.90;;;;;;5085599;28;20238;-51
2022/07/10 11:27:27;;;;;;;6.05;2.10;;;20.70;99.90;;;;;;5087871;28;20204;-50
2022/07/10 11:30:00;;;;;;;4.93;1.63;;;20.60;99.90;;;;;;5091615;28;20278;-51
2022/07/10 11:32:29;;;;;;;7.00;1.70;;;20.70;99.90;;;;;;5087611;28;20765;-50
2022/07/10 11:34:58;;;;;;;6.72;1.85;;;20.80;99.90;;;;;;5088741;28;20702;-50
2022/07/10 11:37:29;;;;;;;4.88;1.58;;;20.70;99.90;;;;;;5086791;28;20209;-51
2022/07/10 11:40:11;;;;;;;4.28;1.60;;;20.60;99.90;;;;;;5087053;28;20471;-50
2022/07/10 11:42:52;;;;;;;5.75;1.55;;;20.30;99.90;;;;;;5085731;28;20232;-50
2022/07/10 11:45:30;;;;;;;5.47;1.65;;;20.00;99.90;;;;;;5083729;28;20204;-50
2022/07/10 11:47:59;;;;;;;2.38;1.13;;;19.80;99.90;;;;;;5082046;28;20683;-50
2022/07/10 11:50:28;;;;;;;4.63;1.60;;;19.70;99.90;;;;;;5086685;28;20200;-50
2022/07/10 11:52:56;;;;;;;6.78;2.35;;;19.70;99.90;;;;;;5086232;28;20249;-50
2022/07/10 11:55:28;;;;;;;521.25;415.20;;;19.70;99.90;;;;;;5085833;28;20215;-50
2022/07/10 11:57:57;;;;;;;105.00;65.53;;;19.80;99.90;;;;;;5087420;28;20208;-50
2022/07/10 12:00:26;;;;;;;5.90;2.25;;;20.00;99.90;;;;;;5086117;28;20747;-50
2022/07/10 12:02:57;;;;;;;9.05;1.60;;;19.90;99.90;;;;;;5075218;28;20221;-50
2022/07/10 12:05:37;;;;;;;11.10;5.57;;;19.80;99.90;;;;;;5074210;28;20265;-51
2022/07/10 12:08:06;;;;;;;42.92;29.88;;;19.70;99.90;;;;;;5076222;28;20600;-50
2022/07/10 12:10:35;;;;;;;9.77;5.05;;;19.80;99.90;;;;;;5082037;28;20261;-50
2022/07/10 12:13:05;;;;;;;12.07;7.90;;;19.80;99.90;;;;;;5084652;28;20220;-51
2022/07/10 12:15:34;;;;;;;80.00;63.35;;;19.80;99.90;;;;;;5077289;28;20201;-51
2022/07/10 12:18:04;;;;;;;28.02;21.80;;;20.00;99.90;;;;;;5083120;28;20223;-51
2022/07/10 12:20:33;;;;;;;8.13;3.53;;;20.50;99.90;;;;;;5088209;28;20585;-50
2022/07/10 12:23:02;;;;;;;6.20;3.80;;;20.60;99.90;;;;;;5080595;28;20314;-50
2022/07/10 12:25:31;;;;;;;4.13;2.08;;;20.60;99.90;;;;;;5083288;28;20552;-51
2022/07/10 12:28:00;;;;;;;3.33;1.50;;;20.70;99.90;;;;;;5084638;28;20205;-50
2022/07/10 12:30:39;;;;;;;3.33;1.33;;;20.60;99.90;;;;;;5088106;28;20254;-51
2022/07/10 12:33:10;;;;;;;2.40;1.27;;;20.60;99.90;;;;;;5083322;28;20241;-50
2022/07/10 12:35:49;;;;;;;6.00;2.00;;;20.70;99.90;;;;;;5085900;28;20763;-50
2022/07/10 12:38:19;;;;;;;12.50;9.57;;;20.80;99.90;;;;;;5091336;28;20666;-51
2022/07/10 12:40:48;;;;;;;36.33;24.05;;;21.00;99.90;;;;;;5091924;28;20200;-50
2022/07/10 12:43:27;;;;;;;8.80;5.32;;;21.10;99.90;;;;;;5086171;28;20224;-50
2022/07/10 12:46:16;;;;;;;5.75;2.13;;;21.00;99.90;;;;;;5083315;28;20547;-51
2022/07/10 12:49:06;;;;;;;5.35;1.58;;;21.00;99.90;;;;;;5088636;28;20200;-50
2022/07/10 12:51:42;;;;;;;1.98;1.50;;;20.70;99.90;;;;;;5084383;28;20825;-50
2022/07/10 12:54:31;;;;;;;2.95;1.70;;;20.50;99.90;;;;;;5086057;28;20884;-51
2022/07/10 12:57:01;;;;;;;65.93;53.33;;;20.50;99.90;;;;;;5090160;28;20628;-50
2022/07/10 12:59:29;;;;;;;16.02;13.88;;;20.70;99.90;;;;;;5090594;28;20548;-50
2022/07/10 13:01:58;;;;;;;9.88;7.93;;;21.00;99.90;;;;;;5091410;28;20231;-50
2022/07/10 13:04:28;;;;;;;5.00;1.40;;;21.10;99.90;;;;;;5088583;28;20204;-50
2022/07/10 13:06:56;;;;;;;3.22;1.42;;;21.20;99.90;;;;;;5089919;28;20200;-50
2022/07/10 13:09:25;;;;;;;4.90;2.60;;;21.10;99.90;;;;;;5089867;28;20208;-49